Vienna, Georgia
Current Conditions -  °F | °C
As of 5:15 AM on Monday 26 Jan 2015 (Local Time) from KCKF Reporting Station
Overcast Overcast  
Wind Chill: 45°   Ceiling: 9500
Heat Index: 49°   Visibility: 10mi
Dew Point: 43°   Wind: 9mph
Humidity: 80%   Direction: 280°W
Pressure: 29.8"   Gusts: NA
Location:  32.09°N, 83.8°W
Report Text: KCKF 261015Z AUTO 28008KT 10SM OVC095 09/06 A2980 RMK AO2 T00920060
Loading
Personal Weather Stations






























Interactive Weather Map New forecast layout! Learn more

10-Day Weather Forecast

Advertisements
Track Severe Weather on mobile